Time;durP1;ratioP1;P1;durP2;ratioP2;P2;SDS_P1;SDS_P2;PMS_P1;PMS_P2;Temp;Humidity;BMP_temperature;BMP_pressure;BME280_temperature;BME280_humidity;BME280_pressure;Samples;Min_cycle;Max_cycle;Signal;HPM_P1;HPM_P2
2023/06/27 00:01:16;;;;;;;4.63;1.52;;;18.00;84.00;;;17.92;62.38;97574.28;5029860;28;20032;-36
2023/06/27 00:03:42;;;;;;;4.78;1.50;;;18.00;84.60;;;17.93;62.64;97580.50;5036044;28;20079;-36
2023/06/27 00:06:07;;;;;;;3.33;1.50;;;18.00;84.20;;;17.94;63.18;97582.19;5030015;28;20488;-36
2023/06/27 00:08:33;;;;;;;8.18;1.67;;;18.10;85.00;;;17.95;62.38;97570.59;5035508;28;20255;-36
2023/06/27 00:10:59;;;;;;;3.97;1.42;;;18.10;84.40;;;17.94;62.55;97576.88;5037679;28;20024;-36
2023/06/27 00:13:25;;;;;;;5.43;1.70;;;18.10;84.40;;;17.89;62.38;97573.63;5039498;28;20039;-36
2023/06/27 00:15:54;;;;;;;3.20;1.60;;;18.00;84.20;;;17.89;62.77;97577.19;5040665;28;20646;-36
2023/06/27 00:18:22;;;;;;;4.80;1.75;;;18.00;84.90;;;17.80;63.01;97568.84;5039084;28;20037;-36
2023/06/27 00:20:49;;;;;;;3.33;1.40;;;17.90;84.60;;;17.80;63.29;97582.19;5042209;28;20033;-36
2023/06/27 00:23:21;;;;;;;3.85;1.52;;;17.90;84.80;;;17.73;64.25;97579.91;5035446;28;20032;-36
2023/06/27 00:25:47;;;;;;;2.78;1.38;;;17.90;85.40;;;17.67;64.57;97582.97;5041119;28;20032;-36
2023/06/27 00:28:13;;;;;;;5.53;1.65;;;17.80;85.60;;;17.61;64.98;97580.69;5039934;28;20033;-36
2023/06/27 00:30:39;;;;;;;3.20;1.40;;;17.70;85.70;;;17.60;65.83;97589.63;5036891;28;20891;-36
2023/06/27 00:33:04;;;;;;;6.95;1.63;;;17.70;86.00;;;17.58;66.60;97588.88;5037405;28;20103;-36
2023/06/27 00:35:33;;;;;;;3.65;1.30;;;17.70;86.70;;;17.59;66.33;97595.09;5041124;28;20119;-36
2023/06/27 00:38:01;;;;;;;2.45;1.40;;;17.70;86.70;;;17.58;66.51;97588.88;5041919;28;20062;-36
2023/06/27 00:40:26;;;;;;;4.05;1.50;;;17.70;86.70;;;17.57;66.55;97589.84;5041056;28;20029;-36
2023/06/27 00:42:53;;;;;;;4.63;1.50;;;17.70;86.70;;;17.59;66.50;97589.75;5046859;28;20052;-36
2023/06/27 00:45:22;;;;;;;5.65;1.65;;;17.70;86.70;;;17.58;66.83;97588.03;5041407;28;20033;-36
2023/06/27 00:47:47;;;;;;;7.07;1.55;;;17.70;86.80;;;17.54;66.61;97577.53;5040073;28;20025;-36
2023/06/27 00:50:14;;;;;;;2.75;1.20;;;17.70;86.80;;;17.60;66.91;97586.13;5040507;28;20039;-36
2023/06/27 00:52:40;;;;;;;5.55;2.00;;;17.70;86.90;;;17.62;66.59;97585.09;5024557;28;20097;-36
2023/06/27 00:55:08;;;;;;;4.68;1.65;;;17.70;86.70;;;17.64;66.90;97588.50;5032605;28;20071;-36
2023/06/27 00:57:34;;;;;;;3.92;1.63;;;17.80;87.00;;;17.66;67.22;97596.41;5027976;28;20038;-36
2023/06/27 01:00:00;;;;;;;2.80;1.48;;;17.80;87.20;;;17.69;66.77;97591.75;5023057;28;20082;-36
2023/06/27 01:02:25;;;;;;;5.20;1.70;;;17.80;86.80;;;17.69;67.60;97586.41;5035172;28;20466;-36
2023/06/27 01:04:54;;;;;;;4.93;1.50;;;17.80;87.30;;;17.71;68.15;97595.16;5041661;28;20047;-36
2023/06/27 01:07:32;;;;;;;5.25;1.63;;;17.80;87.40;;;17.71;67.07;97599.63;5032693;28;20037;-36
2023/06/27 01:10:07;;;;;;;4.10;1.65;;;17.80;87.30;;;17.72;67.03;97601.34;5024360;28;20029;-36
2023/06/27 01:12:50;;;;;;;2.33;1.40;;;17.80;87.10;;;17.75;65.96;97596.69;5022265;28;20041;-36
2023/06/27 01:15:16;;;;;;;2.65;1.25;;;17.90;86.60;;;17.78;66.52;97602.78;5020139;28;20035;-36
2023/06/27 01:17:41;;;;;;;6.30;1.80;;;17.90;86.80;;;17.82;66.64;97606.94;5038418;28;20028;-36
2023/06/27 01:20:09;;;;;;;1.42;1.10;;;17.90;87.00;;;17.80;67.08;97603.53;5016340;28;20029;-37
2023/06/27 01:22:46;;;;;;;2.35;1.30;;;18.00;87.10;;;17.81;66.24;97602.59;5025061;28;20387;-37
2023/06/27 01:25:12;;;;;;;4.32;1.55;;;17.90;86.70;;;17.82;68.58;97601.63;5026680;28;20040;-37
2023/06/27 01:27:38;;;;;;;3.42;1.45;;;17.90;88.10;;;17.78;69.70;97597.44;5039164;28;20033;-37
2023/06/27 01:30:06;;;;;;;4.75;1.60;;;17.90;88.20;;;17.75;68.67;97602.00;5043609;28;20510;-36
2023/06/27 01:32:43;;;;;;;2.70;1.50;;;17.90;88.10;;;17.74;69.66;97600.28;5044239;28;20081;-37
2023/06/27 01:35:34;;;;;;;5.43;1.90;;;17.90;88.40;;;17.73;69.03;97603.94;5037275;28;20070;-37
2023/06/27 01:38:10;;;;;;;3.07;1.80;;;17.80;88.20;;;17.71;68.98;97605.84;5039978;23;20083;-35
2023/06/27 01:40:38;;;;;;;3.42;1.50;;;17.80;88.30;;;17.71;69.04;97603.16;5032786;28;20350;-37
2023/06/27 01:43:11;;;;;;;3.17;1.40;;;17.80;88.30;;;17.71;69.53;97602.28;5032217;28;20045;-37
2023/06/27 01:45:39;;;;;;;3.70;1.80;;;17.80;88.60;;;17.67;69.46;97603.44;5032642;28;20037;-37
2023/06/27 01:48:07;;;;;;;6.07;1.60;;;17.80;88.50;;;17.60;68.30;97600.28;5027784;28;20048;-37
2023/06/27 01:50:32;;;;;;;6.00;1.60;;;17.70;87.80;;;17.55;69.82;97602.41;5029060;28;20064;-37
2023/06/27 01:52:58;;;;;;;2.90;1.60;;;17.60;88.60;;;17.49;70.27;97597.44;5011302;28;20041;-37
2023/06/27 01:55:24;;;;;;;4.40;1.80;;;17.60;88.90;;;17.45;70.68;97587.94;5026599;28;20509;-37
2023/06/27 01:57:50;;;;;;;1.70;1.08;;;17.60;88.90;;;17.30;72.05;97579.03;5032917;28;20025;-37
2023/06/27 02:00:17;;;;;;;3.95;1.40;;;17.50;90.00;;;17.25;70.94;97583.84;5022980;28;20111;-37
2023/06/27 02:02:43;;;;;;;4.13;1.77;;;17.50;89.40;;;17.29;71.08;97591.53;5030690;28;20060;-38
2023/06/27 02:05:09;;;;;;;2.80;1.30;;;17.40;89.30;;;17.22;74.28;97592.84;5026384;28;20033;-37
2023/06/27 02:07:35;;;;;;;3.50;1.27;;;17.30;90.20;;;17.17;74.80;97592.28;5027581;28;20641;-37
2023/06/27 02:10:02;;;;;;;4.72;1.70;;;17.30;90.50;;;17.12;72.06;97597.00;5030129;28;20354;-37
2023/06/27 02:12:27;;;;;;;6.45;1.80;;;17.30;90.00;;;17.04;75.57;97600.16;5026371;28;20124;-37
2023/06/27 02:14:53;;;;;;;1.80;1.10;;;17.20;90.30;;;16.98;76.03;97595.19;5006537;28;20248;-37
2023/06/27 02:17:19;;;;;;;5.40;1.73;;;17.10;90.70;;;16.94;75.50;97598.97;5020917;28;20028;-37
2023/06/27 02:19:45;;;;;;;3.75;1.70;;;17.10;90.80;;;16.94;75.89;97591.88;5029995;28;20485;-37
2023/06/27 02:22:10;;;;;;;3.15;1.27;;;17.10;90.70;;;16.95;77.01;97592.72;5013749;28;20354;-37
2023/06/27 02:24:36;;;;;;;3.53;1.67;;;17.10;91.00;;;16.94;76.62;97590.97;5025453;28;20487;-37
2023/06/27 02:27:01;;;;;;;5.60;1.77;;;17.10;91.00;;;16.90;76.97;97576.13;5032254;28;20041;-37
2023/06/27 02:29:28;;;;;;;7.20;1.85;;;17.10;91.10;;;16.92;78.22;97585.78;5017464;28;20129;-37
2023/06/27 02:31:53;;;;;;;3.97;1.48;;;17.10;91.10;;;16.93;75.50;97581.28;5019365;28;20065;-37
2023/06/27 02:34:20;;;;;;;3.53;1.42;;;17.10;90.80;;;16.91;75.94;97576.06;5026332;28;20036;-37
2023/06/27 02:36:45;;;;;;;3.08;1.30;;;17.10;90.90;;;16.94;75.06;97586.53;5027584;28;20025;-37
2023/06/27 02:39:11;;;;;;;3.30;1.50;;;17.10;90.70;;;16.97;76.34;97577.50;5020908;28;20372;-37
2023/06/27 02:41:37;;;;;;;2.83;1.60;;;17.10;91.00;;;16.98;76.54;97576.56;5027716;28;20036;-37
2023/06/27 02:44:02;;;;;;;4.45;1.40;;;17.10;91.00;;;17.00;73.46;97577.31;5031684;28;20045;-37
2023/06/27 02:46:28;;;;;;;7.65;1.88;;;17.10;90.40;;;17.01;75.18;97572.84;5030251;28;20037;-37
2023/06/27 02:48:54;;;;;;;4.60;2.10;;;17.10;90.70;;;17.02;75.33;97580.75;5033027;28;20032;-38
2023/06/27 02:51:21;;;;;;;3.55;1.30;;;17.10;90.80;;;17.00;74.72;97587.97;5025162;28;20699;-37
2023/06/27 02:53:47;;;;;;;4.93;1.60;;;17.10;90.70;;;16.92;75.79;97588.44;5028838;28;20467;-37
2023/06/27 02:56:13;;;;;;;3.45;1.55;;;17.10;90.80;;;16.96;75.21;97586.44;5023908;28;20046;-37
2023/06/27 02:58:39;;;;;;;3.83;1.70;;;17.10;90.70;;;16.90;75.15;97592.13;5027194;28;20394;-37
2023/06/27 03:01:06;;;;;;;3.80;1.33;;;17.10;90.70;;;16.84;75.70;97582.69;5020626;28;20033;-37
2023/06/27 03:03:33;;;;;;;3.72;1.80;;;17.00;90.90;;;16.78;76.54;97583.03;5024278;28;20063;-37
2023/06/27 03:06:03;;;;;;;3.15;1.30;;;16.90;91.10;;;16.75;75.99;97586.72;5023874;28;20032;-37
2023/06/27 03:08:30;;;;;;;3.15;1.48;;;16.90;90.90;;;16.69;76.70;97595.09;5024511;28;20089;-37
2023/06/27 03:10:56;;;;;;;3.45;1.40;;;16.90;91.10;;;16.66;78.03;97591.75;5024303;28;20064;-37
2023/06/27 03:13:22;;;;;;;4.80;1.67;;;16.80;91.40;;;16.64;78.91;97596.31;5019750;28;20163;-37
2023/06/27 03:15:47;;;;;;;2.58;1.40;;;16.80;91.70;;;16.62;78.01;97593.72;5017629;28;20546;-37
2023/06/27 03:18:13;;;;;;;3.42;1.38;;;16.70;91.40;;;16.56;77.32;97596.72;5024206;28;20069;-37
2023/06/27 03:20:39;;;;;;;2.97;1.20;;;16.70;91.30;;;16.51;78.15;97590.81;5026580;28;20021;-37
2023/06/27 03:23:04;;;;;;;5.03;1.80;;;16.60;91.50;;;16.46;78.29;97591.09;5025728;28;20501;-37
2023/06/27 03:25:30;;;;;;;2.60;1.45;;;16.60;91.60;;;16.07;77.33;97533.88;5028731;28;20194;-37
2023/06/27 03:27:56;;;;;;;4.47;1.80;;;16.60;91.30;;;16.39;78.08;97589.72;5026699;28;20072;-37
2023/06/27 03:30:21;;;;;;;2.45;1.25;;;16.60;91.50;;;16.33;78.05;97587.41;5017811;28;20036;-37
2023/06/27 03:32:47;;;;;;;2.90;1.50;;;16.50;91.50;;;16.34;76.97;97583.81;5027543;28;20390;-37
2023/06/27 03:35:13;;;;;;;3.75;1.38;;;16.50;91.30;;;16.28;76.72;97587.69;5020184;28;20453;-37
2023/06/27 03:37:38;;;;;;;4.35;1.35;;;16.50;91.30;;;16.28;77.35;97587.69;5029408;28;20109;-37
2023/06/27 03:40:05;;;;;;;2.30;1.40;;;16.40;91.50;;;16.26;77.03;97596.69;5026045;28;20032;-37
2023/06/27 03:42:31;;;;;;;4.30;1.35;;;16.40;91.40;;;16.22;77.95;97591.56;5024039;28;20033;-37
2023/06/27 03:44:57;;;;;;;4.90;1.58;;;16.40;91.50;;;16.21;79.06;97603.13;5026342;28;20502;-37
2023/06/27 03:47:23;;;;;;;3.78;1.40;;;16.40;91.80;;;16.20;79.63;97598.78;5026182;28;20061;-37
2023/06/27 03:49:49;;;;;;;2.70;1.30;;;16.40;91.90;;;16.18;79.53;97594.47;5027140;28;20467;-37
2023/06/27 03:52:15;;;;;;;4.43;1.42;;;16.40;91.90;;;16.19;78.72;97605.03;5030859;28;20037;-37
2023/06/27 03:54:40;;;;;;;3.08;1.42;;;16.30;91.70;;;16.20;80.50;97605.88;5031597;28;20029;-37
2023/06/27 03:57:06;;;;;;;3.63;1.63;;;16.40;92.10;;;16.18;81.80;97603.31;5029107;28;20088;-37
2023/06/27 03:59:32;;;;;;;3.13;1.38;;;16.30;92.40;;;16.18;81.72;97600.63;5011377;28;20148;-37
2023/06/27 04:01:58;;;;;;;4.55;1.65;;;16.40;92.40;;;16.19;81.52;97597.03;5031621;28;20501;-37
2023/06/27 04:04:25;;;;;;;3.63;1.38;;;16.40;92.30;;;16.21;82.02;97597.81;5027261;28;20040;-37
2023/06/27 04:06:50;;;;;;;3.05;1.27;;;16.40;92.40;;;16.22;82.13;97594.22;5026501;28;20633;-37
2023/06/27 04:09:16;;;;;;;3.15;1.67;;;16.40;92.50;;;16.24;80.43;97602.13;5028870;28;20557;-37
2023/06/27 04:11:42;;;;;;;2.58;1.38;;;16.40;92.20;;;16.22;81.59;97602.19;5029851;28;20036;-37
2023/06/27 04:14:07;;;;;;;3.30;1.33;;;16.40;92.40;;;16.25;81.91;97602.97;5027715;28;20021;-37
2023/06/27 04:16:33;;;;;;;3.00;1.50;;;16.40;92.50;;;16.28;82.46;97608.13;5033968;28;20033;-37
2023/06/27 04:18:59;;;;;;;4.50;1.58;;;16.40;92.60;;;16.30;80.51;97604.41;5033241;28;20061;-37
2023/06/27 04:21:24;;;;;;;3.55;1.63;;;16.40;92.20;;;16.35;79.27;97602.38;5022800;28;20029;-37
2023/06/27 04:23:54;;;;;;;3.95;1.45;;;16.50;92.10;;;16.30;78.46;97585.78;5035784;28;20560;-37
2023/06/27 04:26:20;;;;;;;2.67;1.35;;;16.60;91.80;;;16.44;78.41;97593.00;5025726;28;20037;-38
2023/06/27 04:28:48;;;;;;;3.88;1.38;;;16.60;91.90;;;16.56;78.21;97608.25;5031090;28;20033;-39
2023/06/27 04:31:15;;;;;;;4.65;1.63;;;16.70;91.90;;;16.66;76.61;97602.41;5029371;28;20022;-38
2023/06/27 04:33:41;;;;;;;4.50;1.50;;;16.80;91.60;;;16.69;75.97;97605.75;5032958;28;20484;-38
2023/06/27 04:36:07;;;;;;;4.07;1.60;;;16.80;91.40;;;16.74;75.59;97605.44;5032386;28;20052;-39
2023/06/27 04:38:40;;;;;;;2.45;1.33;;;16.90;91.30;;;16.77;75.47;97619.44;5026278;28;20601;-38
2023/06/27 04:41:10;;;;;;;3.88;1.38;;;16.90;91.30;;;16.83;76.08;97617.38;5031004;28;20082;-38
2023/06/27 04:43:39;;;;;;;6.00;1.80;;;16.90;91.40;;;16.77;75.09;97608.78;5034085;28;20424;-38
2023/06/27 04:46:04;;;;;;;2.40;1.23;;;17.00;91.20;;;16.89;74.40;97609.91;5027336;28;20037;-39
2023/06/27 04:48:30;;;;;;;2.60;1.40;;;17.00;91.10;;;16.92;74.85;97607.09;5019596;28;20346;-38
2023/06/27 04:50:56;;;;;;;1.60;1.20;;;17.00;91.20;;;16.92;75.00;97603.53;5023598;28;20017;-38
2023/06/27 04:53:26;;;;;;;3.88;1.73;;;17.10;91.20;;;16.97;74.75;97610.31;5023537;28;20494;-37
2023/06/27 04:55:53;;;;;;;8.00;1.52;;;17.10;91.20;;;17.00;75.46;97624.41;5026003;28;20033;-40
2023/06/27 04:58:19;;;;;;;3.50;1.40;;;17.10;91.30;;;17.05;74.99;97615.19;5030795;28;20033;-41
2023/06/27 05:00:51;;;;;;;2.35;1.13;;;17.20;91.30;;;17.09;74.52;97630.03;5029422;28;20037;-41
2023/06/27 05:03:18;;;;;;;3.00;1.58;;;17.20;91.20;;;17.18;74.06;97632.16;5029302;28;20053;-39
2023/06/27 05:05:44;;;;;;;4.00;1.42;;;17.30;91.10;;;17.29;74.23;97626.19;5018323;28;20043;-40
2023/06/27 05:08:11;;;;;;;2.95;1.48;;;17.40;91.20;;;17.35;73.78;97622.28;5029059;28;20032;-40
2023/06/27 05:10:37;;;;;;;2.72;1.33;;;17.50;91.10;;;17.48;72.81;97636.59;5033042;28;20751;-41
2023/06/27 05:13:03;;;;;;;6.78;1.60;;;17.60;90.80;;;17.57;72.26;97640.50;5038226;28;20032;-38
2023/06/27 05:15:28;;;;;;;4.65;1.55;;;17.70;90.70;;;17.66;70.55;97633.75;5033501;28;20036;-39
2023/06/27 05:18:15;;;;;;;3.63;1.98;;;17.70;90.30;;;17.74;69.26;97639.44;5035800;28;20021;-39
2023/06/27 05:20:41;;;;;;;6.75;1.77;;;17.90;90.10;;;17.81;68.76;97637.25;5033983;28;20040;-38
2023/06/27 05:23:07;;;;;;;5.35;1.35;;;17.90;90.00;;;17.87;67.99;97640.44;5036324;28;20059;-40
2023/06/27 05:25:33;;;;;;;1.67;1.30;;;18.00;89.60;;;17.94;67.62;97643.56;5035378;28;20483;-38
2023/06/27 05:28:00;;;;;;;1.92;1.17;;;18.00;89.30;;;17.97;68.00;97627.38;5038250;28;20044;-38
2023/06/27 05:30:27;;;;;;;6.05;1.67;;;18.10;89.60;;;18.03;67.06;97634.13;5033146;28;20033;-37
2023/06/27 05:32:53;;;;;;;2.50;1.20;;;18.10;89.10;;;18.02;66.47;97637.78;5034856;28;20048;-37
2023/06/27 05:36:14;;;;;;;4.32;1.50;;;18.10;88.80;;;18.02;67.66;97635.94;5031870;28;20482;-38
2023/06/27 05:38:40;;;;;;;5.78;1.52;;;18.10;89.00;;;18.02;67.50;97633.28;5032520;28;20041;-38
2023/06/27 05:41:06;;;;;;;10.00;1.70;;;18.10;89.00;;;18.02;66.41;97641.28;5027928;28;20045;-38
2023/06/27 05:43:32;;;;;;;3.33;1.60;;;18.20;88.60;;;18.11;67.14;97648.69;5031323;28;20047;-38
2023/06/27 05:45:58;;;;;;;4.35;1.98;;;18.20;89.10;;;18.23;66.49;97643.53;5031420;28;20486;-38
2023/06/27 05:48:23;;;;;;;2.50;1.25;;;18.30;89.10;;;18.33;66.68;97647.31;5032943;28;20040;-39
2023/06/27 05:50:49;;;;;;;4.82;1.70;;;18.40;89.00;;;18.46;67.30;97650.06;5036453;28;20056;-40
2023/06/27 05:53:15;;;;;;;6.93;1.75;;;18.50;89.20;;;18.58;66.74;97648.41;5039732;28;20394;-39
2023/06/27 05:55:40;;;;;;;8.23;1.73;;;18.60;89.00;;;18.67;65.31;97653.16;5033270;28;20052;-38
2023/06/27 05:58:06;;;;;;;5.28;1.70;;;18.70;88.40;;;18.76;66.33;97651.69;5034785;28;20037;-39
2023/06/27 06:00:32;;;;;;;4.38;1.70;;;18.80;88.80;;;18.88;65.55;97656.25;5036079;28;20036;-38
2023/06/27 06:02:57;;;;;;;3.35;1.35;;;18.90;88.60;;;18.94;64.13;97663.00;5036740;28;20520;-37
2023/06/27 06:05:23;;;;;;;2.28;1.35;;;18.90;87.70;;;19.00;64.02;97651.88;5034741;28;20735;-37
2023/06/27 06:07:50;;;;;;;2.60;1.40;;;19.00;87.70;;;19.07;62.33;97654.03;5034712;28;20040;-37
2023/06/27 06:10:16;;;;;;;3.03;1.42;;;19.10;87.10;;;19.15;61.40;97645.53;5025163;28;20166;-37
2023/06/27 06:12:43;;;;;;;3.50;1.75;;;19.20;86.40;;;19.21;60.51;97637.06;5028724;28;20029;-37
2023/06/27 06:15:08;;;;;;;4.88;1.77;;;19.20;86.60;;;19.20;59.89;97637.16;5033701;28;20432;-37
2023/06/27 06:17:34;;;;;;;4.85;1.75;;;19.30;85.00;;;19.33;59.96;97645.22;5035414;28;20111;-37
2023/06/27 06:20:00;;;;;;;4.63;1.70;;;19.30;85.50;;;19.37;59.99;97644.06;5034610;28;20350;-37
2023/06/27 06:22:26;;;;;;;3.28;1.65;;;19.40;85.60;;;19.37;58.33;97639.53;5034656;28;20029;-37
2023/06/27 06:24:52;;;;;;;8.45;1.65;;;19.40;84.40;;;19.44;60.83;97640.00;5032580;28;20052;-37
2023/06/27 06:27:17;;;;;;;5.45;1.60;;;19.50;85.40;;;19.51;59.44;97643.09;5034554;28;20029;-37
2023/06/27 06:29:43;;;;;;;2.72;1.50;;;19.50;86.00;;;19.54;57.83;97635.72;5034462;28;20032;-37
2023/06/27 06:32:09;;;;;;;2.42;1.38;;;19.60;84.10;;;19.63;57.11;97643.09;5030791;28;20041;-37
2023/06/27 06:34:34;;;;;;;4.55;1.60;;;19.60;83.50;;;19.76;57.39;97644.94;5033124;28;20043;-37
2023/06/27 06:37:00;;;;;;;2.00;1.20;;;19.80;83.90;;;19.97;58.63;97651.47;5031034;28;20436;-37
2023/06/27 06:39:26;;;;;;;3.25;1.70;;;20.00;84.40;;;20.33;57.25;97644.41;5035626;28;20029;-38
2023/06/27 06:41:52;;;;;;;4.85;1.50;;;20.30;84.10;;;20.67;55.05;97654.50;5033860;28;20402;-37
2023/06/27 06:44:17;;;;;;;2.50;1.50;;;20.50;82.60;;;20.84;50.70;97650.59;5030384;28;20026;-37
2023/06/27 06:46:43;;;;;;;4.13;1.60;;;20.70;78.90;;;20.88;49.60;97657.41;5032773;28;20032;-37
2023/06/27 06:49:09;;;;;;;3.90;1.13;;;20.80;77.30;;;20.92;49.14;97642.81;5038194;28;20094;-37
2023/06/27 06:51:35;;;;;;;5.60;1.27;;;20.90;77.10;;;21.09;48.40;97658.47;5032885;28;20044;-37
2023/06/27 06:54:01;;;;;;;2.00;1.30;;;21.00;76.80;;;21.24;48.79;97648.41;5036229;28;20037;-37
2023/06/27 06:56:26;;;;;;;5.45;1.13;;;21.10;76.90;;;21.43;48.32;97658.59;5033823;28;20082;-37
2023/06/27 06:58:52;;;;;;;2.83;1.63;;;21.20;77.00;;;21.50;45.48;97669.75;5032892;28;20033;-37
2023/06/27 07:01:18;;;;;;;4.13;1.40;;;21.30;74.80;;;21.61;46.11;97660.84;5027699;28;20054;-37
2023/06/27 07:03:44;;;;;;;2.88;1.30;;;21.40;74.00;;;21.56;46.35;97658.53;5034094;28;20052;-37
2023/06/27 07:06:09;;;;;;;3.60;1.45;;;21.40;73.90;;;21.50;46.38;97651.81;5034619;28;20345;-37
2023/06/27 07:08:35;;;;;;;2.00;1.25;;;21.40;74.50;;;21.60;47.13;97667.19;5034545;28;20086;-37
2023/06/27 07:11:01;;;;;;;3.55;1.35;;;21.40;74.50;;;21.68;47.89;97660.25;5029317;28;20041;-37
2023/06/27 07:13:27;;;;;;;5.50;1.73;;;21.60;75.20;;;21.79;46.91;97659.41;5033933;28;20021;-37
2023/06/27 07:15:53;;;;;;;4.28;1.95;;;21.70;74.70;;;21.76;45.69;97666.84;5033073;28;20037;-37
2023/06/27 07:18:18;;;;;;;5.45;1.73;;;21.70;73.60;;;21.54;45.17;97655.94;5034372;28;20434;-39
2023/06/27 07:20:44;;;;;;;2.47;1.50;;;21.60;71.90;;;21.68;45.58;97660.25;5040733;28;20025;-39
2023/06/27 07:23:09;;;;;;;3.40;1.58;;;21.70;72.90;;;21.80;46.48;97655.72;5028523;28;20087;-38
2023/06/27 07:25:38;;;;;;;4.05;1.85;;;21.70;73.70;;;21.68;45.50;97649.53;5035395;28;20615;-38
2023/06/27 07:28:04;;;;;;;2.80;1.23;;;21.70;72.30;;;21.64;46.34;97656.09;5032676;28;20044;-39
2023/06/27 07:30:29;;;;;;;3.50;1.40;;;21.70;73.10;;;21.62;45.80;97654.50;5033534;28;20040;-39
2023/06/27 07:32:55;;;;;;;3.97;1.42;;;21.60;72.80;;;21.53;45.39;97654.25;5035295;28;20024;-39
2023/06/27 07:35:21;;;;;;;2.00;1.35;;;21.50;72.40;;;21.74;45.83;97653.53;5030931;28;20040;-38
2023/06/27 07:37:46;;;;;;;2.97;1.60;;;21.70;73.10;;;21.94;46.17;97660.03;5035079;28;20021;-37
2023/06/27 07:40:12;;;;;;;6.43;2.00;;;21.80;73.40;;;22.05;44.96;97654.66;5032581;28;20322;-37
2023/06/27 07:42:38;;;;;;;3.83;1.42;;;22.00;72.20;;;22.15;45.04;97657.47;5035997;28;20033;-37
2023/06/27 07:45:05;;;;;;;2.30;1.40;;;22.10;72.10;;;22.41;45.44;97654.53;5026118;28;20029;-37
2023/06/27 07:47:30;;;;;;;4.82;1.52;;;22.30;72.70;;;22.37;44.22;97659.31;5029745;28;20034;-37
2023/06/27 07:49:56;;;;;;;2.90;1.50;;;22.40;71.40;;;22.52;42.94;97651.81;5032434;28;20037;-37
2023/06/27 07:52:22;;;;;;;2.28;1.60;;;22.50;69.60;;;22.48;43.39;97658.44;5031104;28;20024;-37
2023/06/27 07:54:47;;;;;;;5.88;1.70;;;22.40;69.00;;;22.33;43.52;97659.69;5011284;28;20056;-37
2023/06/27 07:57:13;;;;;;;3.80;1.50;;;22.30;69.80;;;22.25;44.64;97666.50;5026399;28;20021;-37
2023/06/27 07:59:39;;;;;;;2.40;1.50;;;22.20;71.10;;;22.34;44.46;97666.75;5032768;28;20029;-38
2023/06/27 08:02:05;;;;;;;2.97;1.30;;;22.20;71.40;;;22.33;43.55;97671.28;5027173;28;20021;-38
2023/06/27 08:04:32;;;;;;;4.50;1.42;;;22.30;70.20;;;22.19;43.73;97671.50;5037038;28;20134;-40
2023/06/27 08:06:57;;;;;;;3.17;1.50;;;22.20;70.30;;;22.34;43.80;97675.66;5034358;28;20079;-38
2023/06/27 08:09:23;;;;;;;5.03;1.60;;;22.30;70.50;;;22.63;43.57;97665.25;5037887;28;20032;-38
2023/06/27 08:11:50;;;;;;;5.97;1.67;;;22.50;70.00;;;22.69;42.89;97659.34;5037437;28;20037;-39
2023/06/27 08:14:15;;;;;;;4.65;1.40;;;22.70;68.90;;;22.69;42.87;97653.13;5036446;28;20033;-38
2023/06/27 08:16:41;;;;;;;3.58;1.83;;;22.60;69.10;;;22.38;42.50;97660.16;5037267;28;20375;-38
2023/06/27 08:19:07;;;;;;;7.70;1.85;;;22.40;68.00;;;22.32;42.89;97649.91;5038101;28;20546;-39
2023/06/27 08:21:32;;;;;;;4.13;1.50;;;22.30;68.70;;;22.45;43.04;97651.47;5035743;28;20025;-38
2023/06/27 08:23:58;;;;;;;4.47;1.60;;;22.50;69.10;;;22.71;41.92;97644.94;5037116;28;20036;-38
2023/06/27 08:26:24;;;;;;;4.85;1.88;;;22.70;68.40;;;22.86;42.06;97639.16;5036734;28;20040;-37
2023/06/27 08:28:50;;;;;;;4.72;1.83;;;22.90;68.30;;;22.91;42.15;97635.22;5035066;28;20033;-37
2023/06/27 08:31:16;;;;;;;4.93;1.85;;;23.00;68.10;;;22.69;40.80;97629.78;5039832;28;20072;-37
2023/06/27 08:33:42;;;;;;;2.33;1.40;;;22.90;66.00;;;23.04;41.57;97630.50;5039753;28;20450;-37
2023/06/27 08:36:08;;;;;;;3.25;1.60;;;23.00;67.10;;;23.30;41.23;97628.34;5037989;28;20044;-37
2023/06/27 08:38:33;;;;;;;3.22;1.75;;;23.20;67.00;;;23.49;41.17;97630.31;5039939;28;20168;-37
2023/06/27 08:41:01;;;;;;;3.05;1.70;;;23.50;66.90;;;23.61;40.57;97620.31;5037488;28;20025;-37
2023/06/27 08:43:27;;;;;;;5.50;1.80;;;23.70;65.40;;;23.47;39.93;97620.66;5036929;28;20515;-37
2023/06/27 08:45:54;;;;;;;6.57;1.80;;;23.70;64.40;;;23.56;40.95;97617.16;5038006;28;20036;-37
2023/06/27 08:48:21;;;;;;;8.93;1.80;;;23.80;65.50;;;23.70;39.59;97597.97;5038679;28;20033;-37
2023/06/27 08:50:53;;;;;;;3.95;1.50;;;23.90;64.40;;;23.90;39.30;97607.00;5040897;28;20040;-37
2023/06/27 08:53:21;;;;;;;1.60;1.20;;;24.00;63.80;;;23.97;39.67;97623.50;5037587;28;20072;-37
2023/06/27 08:56:14;;;;;;;3.83;1.65;;;24.00;64.10;;;23.99;40.02;97617.00;5040352;28;20112;-37
2023/06/27 08:58:50;;;;;;;3.33;1.60;;;24.00;64.40;;;23.93;38.99;97616.69;5036901;28;20091;-37
2023/06/27 09:01:16;;;;;;;2.88;1.90;;;24.00;63.10;;;23.62;39.47;97616.66;5037955;28;20094;-37
2023/06/27 09:03:42;;;;;;;4.47;1.98;;;23.90;63.40;;;23.42;40.05;97618.38;5039079;28;20394;-37
2023/06/27 09:06:08;;;;;;;5.88;2.05;;;23.60;63.50;;;23.31;40.83;97613.91;5037499;28;20025;-37
2023/06/27 09:08:35;;;;;;;3.55;1.60;;;23.40;64.60;;;23.18;41.45;97605.16;5039397;28;20434;-37
2023/06/27 09:11:04;;;;;;;4.70;1.60;;;23.20;66.20;;;22.98;41.54;97609.53;5032857;28;20025;-37
2023/06/27 09:13:30;;;;;;;6.60;1.90;;;23.20;66.40;;;22.99;41.11;97605.84;5036575;28;20028;-37
2023/06/27 09:15:55;;;;;;;6.97;1.50;;;23.20;65.90;;;23.35;40.97;97606.44;5040865;28;20028;-37
2023/06/27 09:18:21;;;;;;;6.18;1.65;;;23.40;65.90;;;23.74;40.25;97604.81;5040765;28;20029;-37
2023/06/27 09:20:47;;;;;;;3.97;1.73;;;23.80;65.00;;;23.81;39.31;97576.38;5039806;28;20589;-37
2023/06/27 09:23:14;;;;;;;4.35;1.60;;;24.10;63.80;;;24.28;39.69;97599.19;5036009;28;20037;-37
2023/06/27 09:25:40;;;;;;;3.05;1.80;;;24.40;64.20;;;24.50;39.48;97598.13;5036215;28;20036;-37
2023/06/27 09:28:18;;;;;;;3.65;1.67;;;24.50;63.30;;;24.40;39.33;97600.78;5035347;28;20040;-38
2023/06/27 09:30:55;;;;;;;4.95;1.55;;;24.50;63.90;;;24.16;39.78;97596.63;5034783;28;20406;-37
2023/06/27 09:33:22;;;;;;;2.83;1.40;;;24.40;63.80;;;24.04;39.74;97603.09;5034975;28;20099;-37
2023/06/27 09:35:48;;;;;;;6.28;1.77;;;24.20;63.50;;;23.84;39.39;97604.88;5036800;28;20090;-37
2023/06/27 09:38:13;;;;;;;3.20;1.40;;;24.00;63.00;;;23.82;39.61;97594.22;5037667;28;20678;-37
2023/06/27 09:40:40;;;;;;;3.15;1.70;;;24.00;63.90;;;23.85;40.26;97603.91;5032972;28;20592;-37
2023/06/27 09:43:08;;;;;;;2.35;1.45;;;24.00;64.60;;;24.01;40.08;97603.38;5033800;28;20501;-37
2023/06/27 09:45:34;;;;;;;8.07;1.92;;;24.10;64.60;;;24.10;40.18;97599.00;5030428;28;20036;-37
2023/06/27 09:47:59;;;;;;;4.78;1.73;;;24.30;64.60;;;24.27;40.35;97603.75;5035677;28;20040;-37
2023/06/27 09:50:31;;;;;;;6.47;1.85;;;24.40;63.80;;;24.33;38.96;97602.34;5038170;28;20033;-37
2023/06/27 09:53:02;;;;;;;4.25;2.00;;;24.60;62.40;;;24.53;38.53;97595.16;5038447;28;20024;-37
2023/06/27 09:55:28;;;;;;;4.83;2.00;;;24.80;63.00;;;24.64;38.53;97597.75;5038555;28;20029;-37
2023/06/27 09:57:55;;;;;;;5.20;1.85;;;24.90;61.70;;;24.46;37.30;97592.16;5036466;28;20032;-37
2023/06/27 10:00:22;;;;;;;3.75;1.80;;;24.90;60.00;;;24.65;38.25;97591.34;5035167;28;20372;-38
2023/06/27 10:02:52;;;;;;;3.38;1.60;;;24.80;60.80;;;24.76;39.65;97591.25;5039809;28;20037;-37
2023/06/27 10:05:20;;;;;;;4.32;1.80;;;24.90;63.40;;;24.86;37.08;97595.78;5033546;28;20029;-37
2023/06/27 10:07:47;;;;;;;3.15;1.80;;;25.00;60.00;;;24.67;37.10;97604.69;5032788;28;20041;-37
2023/06/27 10:10:14;;;;;;;3.33;1.40;;;25.00;61.40;;;24.80;37.63;97586.44;5038051;28;20041;-38
2023/06/27 10:12:42;;;;;;;3.58;1.70;;;25.00;60.60;;;24.96;37.09;97592.09;5016897;28;20079;-37
2023/06/27 10:15:10;;;;;;;3.10;1.70;;;25.10;61.30;;;25.08;35.80;97598.19;5033275;28;20554;-37
2023/06/27 10:17:37;;;;;;;2.92;1.67;;;25.30;60.00;;;25.06;36.28;97599.31;5034564;28;20020;-37
2023/06/27 10:20:08;;;;;;;4.15;1.77;;;25.30;58.90;;;24.99;38.43;97598.19;5037720;28;20041;-37